Time;durP1;ratioP1;P1;durP2;ratioP2;P2;SDS_P1;SDS_P2;PMS_P1;PMS_P2;Temp;Humidity;BMP_temperature;BMP_pressure;BME280_temperature;BME280_humidity;BME280_pressure;Samples;Min_cycle;Max_cycle;Signal;HPM_P1;HPM_P2
2023/09/08 04:00:54;;;;;;;5.90;2.67;;;15.20;97.30;;;;;;6028565;23;21327;-85
2023/09/08 04:03:19;;;;;;;2.37;2.23;;;15.20;97.30;;;;;;4970490;28;21096;-86
2023/09/08 04:05:45;;;;;;;3.17;2.50;;;15.20;97.30;;;;;;4973499;28;20492;-83
2023/09/08 04:08:10;;;;;;;2.00;1.70;;;15.20;97.30;;;;;;4974857;28;20185;-87
2023/09/08 04:10:36;;;;;;;2.60;2.43;;;15.20;97.30;;;;;;4971726;28;20582;-88
2023/09/08 04:13:01;;;;;;;2.30;1.50;;;15.10;97.30;;;;;;4954262;28;20179;-88
2023/09/08 04:15:27;;;;;;;5.43;4.17;;;15.10;97.30;;;;;;4956849;28;20210;-88
2023/09/08 04:17:52;;;;;;;2.93;2.73;;;15.10;97.30;;;;;;4955879;28;20187;-88
2023/09/08 04:20:21;;;;;;;2.93;2.27;;;15.00;97.30;;;;;;4955404;28;20187;-88
2023/09/08 04:22:49;;;;;;;4.53;2.13;;;15.00;97.30;;;;;;4952425;28;20245;-88
2023/09/08 04:25:21;;;;;;;2.50;1.90;;;15.00;97.30;;;;;;4953366;28;20433;-88
2023/09/08 04:27:49;;;;;;;2.00;1.93;;;14.90;97.30;;;;;;4952813;28;20426;-88
2023/09/08 04:30:15;;;;;;;2.80;2.63;;;14.90;97.30;;;;;;4952787;28;20485;-88
2023/09/08 04:32:40;;;;;;;7.70;4.40;;;14.90;97.30;;;;;;4952293;28;20854;-88
2023/09/08 04:35:06;;;;;;;2.00;1.90;;;14.90;97.30;;;;;;4952932;28;20195;-88
2023/09/08 04:37:32;;;;;;;4.53;2.40;;;14.90;97.30;;;;;;4952739;28;20187;-88
2023/09/08 04:40:00;;;;;;;8.10;2.13;;;14.90;97.30;;;;;;4953316;29;20834;-88
2023/09/08 04:42:29;;;;;;;2.87;2.67;;;14.80;97.30;;;;;;4952181;28;20210;-86
2023/09/08 04:44:55;;;;;;;4.50;2.73;;;14.80;97.30;;;;;;4952456;28;20473;-88
2023/09/08 04:47:20;;;;;;;1.87;1.83;;;14.80;97.30;;;;;;4952631;28;20431;-89
2023/09/08 04:49:46;;;;;;;4.00;2.63;;;14.80;97.30;;;;;;4952615;28;20191;-88
2023/09/08 04:52:12;;;;;;;2.43;2.23;;;14.70;97.30;;;;;;4951377;28;20730;-88
2023/09/08 04:54:37;;;;;;;3.20;1.87;;;14.70;97.30;;;;;;4950783;28;20872;-89
2023/09/08 04:57:03;;;;;;;10.87;3.07;;;14.70;97.30;;;;;;4950651;28;20197;-89
2023/09/08 04:59:29;;;;;;;3.93;2.70;;;14.70;97.30;;;;;;4950738;28;20187;-87
2023/09/08 05:01:54;;;;;;;1.83;1.73;;;14.70;97.30;;;;;;4960759;28;20712;-87
2023/09/08 05:04:20;;;;;;;2.17;1.73;;;14.70;97.30;;;;;;4969528;28;20187;-88
2023/09/08 05:06:48;;;;;;;2.47;2.00;;;14.60;97.30;;;;;;4969794;28;20556;-88
2023/09/08 05:09:14;;;;;;;2.87;2.17;;;14.60;97.30;;;;;;4970784;28;21090;-88
2023/09/08 05:11:40;;;;;;;2.20;1.70;;;14.60;97.30;;;;;;4970129;28;20984;-88
2023/09/08 05:14:06;;;;;;;3.43;2.10;;;14.60;97.30;;;;;;4970170;28;20429;-89
2023/09/08 05:16:46;;;;;;;3.07;1.90;;;14.60;97.30;;;;;;4970292;28;20609;-88
2023/09/08 05:19:13;;;;;;;3.20;1.87;;;14.60;97.30;;;;;;4970960;28;20182;-87
2023/09/08 05:21:39;;;;;;;4.13;3.07;;;14.60;97.30;;;;;;4970865;28;20441;-87
2023/09/08 05:24:05;;;;;;;1.80;1.70;;;14.60;97.30;;;;;;4970737;28;20480;-87
2023/09/08 05:26:31;;;;;;;4.17;3.93;;;14.60;97.30;;;;;;4971004;28;20414;-88
2023/09/08 05:28:56;;;;;;;1.77;1.67;;;14.60;97.30;;;;;;4972024;28;20425;-88
2023/09/08 05:31:22;;;;;;;4.33;3.17;;;14.70;97.30;;;;;;4970473;28;20292;-88
2023/09/08 05:33:48;;;;;;;3.10;2.50;;;14.70;97.30;;;;;;4971330;28;20182;-88
2023/09/08 05:36:13;;;;;;;5.63;2.63;;;14.80;97.30;;;;;;4970991;28;20170;-88
2023/09/08 05:38:39;;;;;;;3.50;3.17;;;14.80;97.30;;;;;;4970857;28;20513;-88
2023/09/08 05:41:04;;;;;;;2.83;2.63;;;14.80;97.30;;;;;;4970806;28;20204;-88
2023/09/08 05:43:30;;;;;;;4.23;3.80;;;14.80;97.30;;;;;;4971528;28;20588;-88
2023/09/08 05:45:58;;;;;;;2.33;2.20;;;14.90;97.30;;;;;;4974813;28;20209;-88
2023/09/08 05:48:23;;;;;;;5.67;2.90;;;14.90;97.30;;;;;;4974586;28;20203;-88
2023/09/08 05:50:49;;;;;;;2.40;1.93;;;14.90;97.30;;;;;;4974805;28;20889;-88
2023/09/08 05:53:14;;;;;;;3.33;2.33;;;15.00;97.30;;;;;;4974750;28;20193;-88
2023/09/08 05:55:40;;;;;;;1.87;1.43;;;15.00;97.30;;;;;;4974894;28;20189;-86
2023/09/08 05:58:07;;;;;;;6.23;2.30;;;15.10;97.30;;;;;;4974541;28;20198;-88
2023/09/08 06:00:33;;;;;;;2.90;2.67;;;15.10;97.30;;;;;;4974076;28;20187;-90
2023/09/08 06:02:58;;;;;;;2.90;2.03;;;15.20;97.30;;;;;;4974198;28;20478;-88
2023/09/08 06:05:24;;;;;;;2.70;2.50;;;15.20;97.30;;;;;;4974287;28;20685;-88
2023/09/08 06:07:49;;;;;;;3.90;3.00;;;15.30;97.30;;;;;;4975064;28;20174;-88
2023/09/08 06:10:15;;;;;;;1.50;1.40;;;15.30;97.30;;;;;;4975630;28;20258;-88
2023/09/08 06:12:41;;;;;;;2.73;2.50;;;15.40;97.30;;;;;;4975942;28;20241;-88
2023/09/08 06:15:07;;;;;;;2.03;1.83;;;15.50;97.30;;;;;;4974612;28;20182;-88
2023/09/08 06:17:33;;;;;;;9.77;2.60;;;15.50;97.30;;;;;;4974405;28;20667;-88
2023/09/08 06:19:58;;;;;;;2.27;2.10;;;15.60;97.30;;;;;;4974190;28;20418;-88
2023/09/08 06:22:24;;;;;;;4.70;2.60;;;15.60;97.30;;;;;;4988480;28;20206;-88
2023/09/08 06:24:49;;;;;;;8.80;2.67;;;15.70;97.30;;;;;;5000500;28;20206;-89
2023/09/08 06:27:15;;;;;;;5.60;2.30;;;15.70;97.30;;;;;;4994200;28;20380;-89
2023/09/08 06:29:43;;;;;;;2.77;2.60;;;15.80;97.30;;;;;;4978938;28;20190;-88
2023/09/08 06:32:09;;;;;;;4.93;2.50;;;15.90;97.30;;;;;;4973630;28;20202;-88
2023/09/08 06:34:35;;;;;;;6.10;3.53;;;15.90;97.30;;;;;;4973911;28;20434;-88
2023/09/08 06:37:01;;;;;;;1.90;1.80;;;16.00;97.30;;;;;;4975001;28;20425;-88
2023/09/08 06:39:27;;;;;;;2.73;2.10;;;16.00;97.30;;;;;;4974695;28;20430;-88
2023/09/08 06:41:53;;;;;;;2.53;2.33;;;16.10;97.30;;;;;;4973741;28;20539;-88
2023/09/08 06:44:22;;;;;;;4.63;2.20;;;16.20;97.30;;;;;;4973769;28;20498;-88
2023/09/08 06:46:48;;;;;;;1.67;1.63;;;16.20;97.30;;;;;;4973976;28;20277;-87
2023/09/08 06:49:13;;;;;;;1.73;1.63;;;16.30;97.30;;;;;;4973516;28;20517;-88
2023/09/08 06:51:39;;;;;;;6.40;2.77;;;16.40;97.30;;;;;;4973780;28;20748;-88
2023/09/08 06:54:07;;;;;;;2.97;2.20;;;16.50;97.30;;;;;;4973370;28;20558;-88
2023/09/08 06:56:33;;;;;;;3.43;3.23;;;16.60;97.30;;;;;;4973662;28;20341;-90
2023/09/08 06:58:58;;;;;;;5.07;2.70;;;16.70;97.30;;;;;;4973211;28;20910;-88
2023/09/08 07:01:24;;;;;;;2.27;2.07;;;16.80;97.30;;;;;;4972947;28;20249;-88
2023/09/08 07:03:50;;;;;;;2.30;2.03;;;16.90;97.30;;;;;;4973125;28;20186;-88
2023/09/08 07:06:18;;;;;;;2.13;1.97;;;17.00;97.30;;;;;;4973070;28;20487;-89
2023/09/08 07:08:44;;;;;;;1.53;1.43;;;17.10;97.30;;;;;;4973098;28;20232;-88
2023/09/08 07:11:09;;;;;;;5.03;2.70;;;17.20;97.30;;;;;;4972919;28;20445;-88
2023/09/08 07:13:35;;;;;;;2.87;2.50;;;17.40;97.30;;;;;;4973006;28;20691;-88
2023/09/08 07:16:00;;;;;;;3.83;2.13;;;17.40;97.30;;;;;;4973177;28;20524;-88
2023/09/08 07:18:26;;;;;;;2.07;1.93;;;17.50;97.30;;;;;;4974142;28;20183;-88
2023/09/08 07:20:51;;;;;;;2.97;1.53;;;17.60;97.30;;;;;;4972543;28;20206;-88
2023/09/08 07:23:20;;;;;;;2.87;2.67;;;17.70;97.30;;;;;;4973037;28;20261;-88
2023/09/08 07:25:47;;;;;;;2.27;2.13;;;17.80;97.30;;;;;;4972811;28;20576;-88
2023/09/08 07:28:12;;;;;;;7.40;2.13;;;18.00;97.30;;;;;;4972859;28;20430;-88
2023/09/08 07:30:38;;;;;;;2.80;2.60;;;18.10;97.30;;;;;;4972666;28;20453;-89
2023/09/08 07:33:05;;;;;;;3.20;2.40;;;18.20;97.30;;;;;;4972872;28;20244;-89
2023/09/08 07:35:31;;;;;;;1.83;1.73;;;18.30;97.30;;;;;;4972927;28;20340;-88
2023/09/08 07:37:56;;;;;;;2.07;1.97;;;18.40;97.30;;;;;;4972758;28;21138;-88
2023/09/08 07:40:22;;;;;;;3.47;3.10;;;18.60;97.30;;;;;;4971964;28;20732;-89
2023/09/08 07:42:47;;;;;;;3.87;2.27;;;18.70;97.30;;;;;;4988317;28;20649;-90
2023/09/08 07:45:13;;;;;;;1.57;1.30;;;18.80;97.30;;;;;;4974561;28;20278;-90
2023/09/08 07:47:38;;;;;;;2.63;1.60;;;18.90;97.30;;;;;;4972743;28;20186;-88
2023/09/08 07:50:27;;;;;;;2.17;2.00;;;19.00;97.30;;;;;;4974561;28;20190;-88
2023/09/08 07:52:55;;;;;;;2.20;2.00;;;19.20;97.30;;;;;;4973115;28;20190;-88
2023/09/08 07:55:22;;;;;;;2.67;1.53;;;19.40;97.30;;;;;;4973711;28;21011;-86
2023/09/08 07:57:49;;;;;;;5.50;3.00;;;19.50;97.30;;;;;;4973526;28;20457;-90
2023/09/08 08:00:16;;;;;;;2.67;2.07;;;19.60;97.30;;;;;;4972749;28;20986;-88
2023/09/08 08:02:54;;;;;;;1.30;1.20;;;19.80;97.30;;;;;;4972551;28;20474;-88
2023/09/08 08:05:19;;;;;;;2.27;1.70;;;19.90;97.30;;;;;;4974505;28;20939;-90
2023/09/08 08:07:45;;;;;;;1.40;1.30;;;20.00;97.30;;;;;;4972103;28;20429;-88
2023/09/08 08:10:12;;;;;;;3.60;1.80;;;20.20;97.30;;;;;;4972508;28;20649;-88
2023/09/08 08:12:39;;;;;;;3.53;1.83;;;20.30;97.30;;;;;;4972836;28;20229;-88
2023/09/08 08:15:05;;;;;;;4.93;1.97;;;20.60;97.30;;;;;;4972184;28;20421;-89
2023/09/08 08:17:31;;;;;;;1.87;1.40;;;20.80;97.30;;;;;;4973641;28;20430;-88
2023/09/08 08:20:06;;;;;;;1.80;1.70;;;20.90;97.30;;;;;;4972218;28;20451;-88
2023/09/08 08:22:31;;;;;;;2.77;2.63;;;21.10;97.30;;;;;;4972242;28;20225;-89
2023/09/08 08:24:57;;;;;;;3.07;1.93;;;21.20;97.30;;;;;;4971888;28;20430;-89
2023/09/08 08:27:22;;;;;;;3.70;3.50;;;21.40;97.30;;;;;;4971944;28;20288;-89
2023/09/08 08:29:48;;;;;;;6.60;2.97;;;21.50;97.30;;;;;;4972055;28;20737;-86
2023/09/08 08:32:13;;;;;;;2.30;2.10;;;21.70;97.30;;;;;;4971717;28;20213;-88
2023/09/08 08:34:39;;;;;;;2.27;2.07;;;21.80;97.30;;;;;;4971999;28;20238;-89
2023/09/08 08:37:04;;;;;;;1.80;1.70;;;21.90;97.30;;;;;;4971561;28;20209;-89
2023/09/08 08:39:30;;;;;;;2.90;1.70;;;22.00;97.30;;;;;;4971598;28;20223;-89
2023/09/08 08:41:55;;;;;;;2.40;1.97;;;22.10;96.70;;;;;;4971476;28;20206;-89
2023/09/08 08:44:22;;;;;;;2.50;1.60;;;22.30;96.30;;;;;;4971600;28;20189;-88
2023/09/08 08:46:49;;;;;;;2.57;1.67;;;22.40;96.60;;;;;;4971638;28;20179;-89
2023/09/08 08:49:16;;;;;;;1.73;1.67;;;22.50;95.70;;;;;;4971591;28;20428;-89
2023/09/08 08:51:48;;;;;;;2.70;2.27;;;22.70;95.70;;;;;;4971451;28;20472;-89
2023/09/08 08:54:15;;;;;;;2.13;1.20;;;22.80;95.30;;;;;;4971456;28;20418;-88
2023/09/08 08:56:41;;;;;;;6.17;2.40;;;22.90;94.70;;;;;;4971743;28;20784;-89
2023/09/08 08:59:08;;;;;;;1.70;1.60;;;23.00;94.60;;;;;;4975014;28;20444;-88
2023/09/08 09:01:37;;;;;;;3.20;1.87;;;23.10;94.10;;;;;;4975262;28;21059;-89
2023/09/08 09:04:06;;;;;;;7.93;1.70;;;23.20;94.20;;;;;;4970923;28;20437;-89
2023/09/08 09:06:32;;;;;;;1.83;1.57;;;23.30;93.90;;;;;;4971965;28;20429;-89
2023/09/08 09:08:59;;;;;;;3.37;2.20;;;23.40;93.40;;;;;;4971430;28;20432;-91
2023/09/08 09:11:25;;;;;;;1.83;1.57;;;23.50;93.30;;;;;;4971296;28;20442;-90
2023/09/08 09:13:50;;;;;;;2.57;2.43;;;23.60;93.10;;;;;;4971376;28;20924;-89
2023/09/08 09:16:16;;;;;;;4.67;1.70;;;23.70;93.30;;;;;;4971154;28;20229;-89
2023/09/08 09:18:54;;;;;;;2.73;2.43;;;23.70;92.70;;;;;;4971679;28;20201;-89
2023/09/08 09:21:19;;;;;;;1.80;1.67;;;23.80;91.80;;;;;;4971062;28;20441;-89
2023/09/08 09:23:50;;;;;;;1.63;1.50;;;23.90;92.00;;;;;;4971338;28;21007;-89
2023/09/08 09:26:30;;;;;;;2.70;1.53;;;24.00;92.10;;;;;;4971107;28;20535;-89
2023/09/08 09:29:02;;;;;;;3.27;2.60;;;24.10;92.00;;;;;;4971471;28;20860;-90
2023/09/08 09:31:31;;;;;;;6.20;2.70;;;24.20;91.50;;;;;;4971488;28;20442;-89
2023/09/08 09:34:05;;;;;;;7.53;1.80;;;24.20;90.50;;;;;;4972467;28;20437;-89
2023/09/08 09:36:30;;;;;;;4.53;2.10;;;24.30;90.20;;;;;;4971455;28;20418;-88
2023/09/08 09:39:03;;;;;;;5.67;2.27;;;24.40;90.30;;;;;;4971074;28;20441;-89
2023/09/08 09:41:31;;;;;;;2.97;1.50;;;24.50;90.40;;;;;;4971123;28;20233;-88
2023/09/08 09:43:59;;;;;;;2.00;1.83;;;24.60;90.90;;;;;;4971287;28;20843;-88
2023/09/08 09:46:30;;;;;;;7.10;2.00;;;24.70;90.80;;;;;;4971271;28;20425;-90
2023/09/08 09:49:01;;;;;;;5.63;2.20;;;24.80;89.90;;;;;;4971111;28;20462;-89
2023/09/08 09:51:30;;;;;;;2.80;1.90;;;24.90;90.30;;;;;;4970760;28;20449;-89
2023/09/08 09:54:03;;;;;;;2.87;1.90;;;25.00;89.20;;;;;;4971310;28;20489;-88
2023/09/08 09:56:32;;;;;;;2.03;1.70;;;25.10;89.10;;;;;;4970992;28;20429;-90
2023/09/08 09:59:02;;;;;;;1.80;1.70;;;25.10;88.60;;;;;;4972718;28;21027;-89
2023/09/08 10:01:32;;;;;;;3.40;2.40;;;25.20;88.50;;;;;;4971104;28;20978;-90
2023/09/08 10:04:02;;;;;;;2.03;1.53;;;25.30;88.40;;;;;;4972348;28;20437;-89
2023/09/08 10:06:33;;;;;;;1.50;1.40;;;25.40;88.60;;;;;;4971906;28;20430;-90
2023/09/08 10:09:13;;;;;;;1.87;1.40;;;25.50;88.30;;;;;;4971181;28;20418;-89
2023/09/08 10:11:44;;;;;;;1.90;1.80;;;25.50;88.00;;;;;;4971642;28;20476;-90
2023/09/08 10:14:11;;;;;;;2.83;2.30;;;25.60;88.10;;;;;;4999711;23;20426;-86
2023/09/08 10:16:39;;;;;;;4.10;2.10;;;25.70;87.90;;;;;;4994735;28;20459;-83
2023/09/08 10:19:08;;;;;;;3.10;2.20;;;25.80;87.40;;;;;;4998866;28;20700;-84
2023/09/08 10:21:42;;;;;;;2.27;1.57;;;25.90;87.00;;;;;;5008540;28;20941;-83
2023/09/08 10:24:14;;;;;;;1.37;1.27;;;26.00;85.70;;;;;;4996704;28;20423;-84
2023/09/08 10:26:43;;;;;;;2.70;1.50;;;26.10;86.50;;;;;;4993945;28;20438;-84
2023/09/08 10:29:10;;;;;;;2.00;1.73;;;26.20;85.20;;;;;;4998497;28;20428;-85
2023/09/08 10:31:36;;;;;;;2.83;1.90;;;26.30;84.60;;;;;;5000383;28;20711;-84
2023/09/08 10:34:03;;;;;;;2.37;1.60;;;26.40;84.90;;;;;;5001652;28;20915;-83
2023/09/08 10:36:28;;;;;;;2.83;1.97;;;26.50;82.60;;;;;;5013361;28;20503;-84
2023/09/08 10:39:08;;;;;;;1.70;1.60;;;26.60;83.30;;;;;;5012182;28;20492;-84
2023/09/08 10:41:34;;;;;;;1.60;1.50;;;26.70;83.00;;;;;;4998910;28;20248;-83
2023/09/08 10:44:07;;;;;;;1.90;1.70;;;26.80;83.00;;;;;;4992628;28;20939;-84
2023/09/08 10:46:34;;;;;;;2.13;1.50;;;26.90;83.40;;;;;;5007370;28;20265;-84
2023/09/08 10:49:07;;;;;;;3.63;1.63;;;27.00;82.00;;;;;;5009156;28;20462;-83
2023/09/08 10:51:35;;;;;;;1.90;1.83;;;27.00;82.10;;;;;;4983754;28;20601;-83
2023/09/08 10:54:02;;;;;;;1.80;1.20;;;27.10;82.00;;;;;;4986226;28;20436;-84
2023/09/08 10:56:53;;;;;;;3.07;1.33;;;27.20;81.90;;;;;;4985938;28;20806;-84
2023/09/08 10:59:18;;;;;;;3.90;1.60;;;27.30;81.80;;;;;;4981806;28;20433;-84
2023/09/08 11:01:46;;;;;;;1.57;1.07;;;27.40;81.70;;;;;;5000896;28;20424;-83
2023/09/08 11:04:13;;;;;;;4.73;2.10;;;27.50;82.60;;;;;;4993635;28;20615;-84
2023/09/08 11:06:39;;;;;;;1.60;1.50;;;27.60;82.50;;;;;;4998278;28;20464;-85
2023/09/08 11:09:08;;;;;;;2.73;1.60;;;27.70;82.60;;;;;;4987865;28;20491;-84
2023/09/08 11:11:34;;;;;;;3.00;2.00;;;27.80;80.30;;;;;;4987471;28;20225;-84
2023/09/08 11:13:59;;;;;;;1.63;1.43;;;27.90;80.60;;;;;;4982408;28;20458;-84
2023/09/08 11:16:29;;;;;;;3.17;1.93;;;28.00;80.00;;;;;;4980567;28;20422;-84
2023/09/08 11:18:55;;;;;;;1.60;1.50;;;28.00;78.80;;;;;;4982070;28;20188;-84
2023/09/08 11:21:20;;;;;;;3.80;1.90;;;28.10;78.40;;;;;;4983390;28;20440;-85
2023/09/08 11:23:46;;;;;;;1.30;1.23;;;28.20;79.10;;;;;;4980633;28;20218;-84
2023/09/08 11:26:12;;;;;;;3.73;2.63;;;28.20;79.80;;;;;;4987329;28;20281;-84
2023/09/08 11:28:38;;;;;;;1.47;1.37;;;28.40;78.50;;;;;;4980226;28;20181;-84
2023/09/08 11:31:04;;;;;;;3.00;1.90;;;28.40;78.80;;;;;;4983839;28;20220;-83
2023/09/08 11:33:34;;;;;;;2.43;1.53;;;28.50;79.20;;;;;;4986550;28;20189;-84
2023/09/08 11:35:59;;;;;;;1.43;1.33;;;28.60;79.30;;;;;;4990420;28;20468;-84
2023/09/08 11:38:26;;;;;;;1.87;1.87;;;28.70;78.40;;;;;;4993505;28;20463;-84
2023/09/08 11:40:59;;;;;;;6.53;1.90;;;28.80;77.30;;;;;;4989255;28;20551;-85
2023/09/08 11:43:27;;;;;;;1.03;0.93;;;28.80;77.00;;;;;;4988390;28;20474;-85
2023/09/08 11:45:52;;;;;;;1.20;1.10;;;28.90;76.30;;;;;;4989705;28;20433;-85
2023/09/08 11:48:19;;;;;;;1.63;1.53;;;29.00;75.80;;;;;;4991091;28;20445;-85
2023/09/08 11:50:45;;;;;;;3.83;1.60;;;29.10;75.70;;;;;;4990026;28;20186;-85
2023/09/08 11:53:10;;;;;;;3.17;2.00;;;29.20;75.20;;;;;;4991762;28;20432;-85
2023/09/08 11:55:39;;;;;;;2.90;1.90;;;29.20;72.20;;;;;;4986809;28;20220;-85
2023/09/08 11:58:05;;;;;;;3.17;3.03;;;29.30;74.40;;;;;;4977196;28;20669;-85
2023/09/08 12:00:32;;;;;;;1.43;1.20;;;29.40;73.80;;;;;;4985027;28;20444;-84
2023/09/08 12:03:10;;;;;;;2.67;2.40;;;29.50;73.50;;;;;;4983086;28;20472;-84
2023/09/08 12:05:36;;;;;;;1.43;1.33;;;29.60;74.30;;;;;;4988279;28;20432;-84
2023/09/08 12:08:06;;;;;;;4.30;1.90;;;29.70;74.10;;;;;;5002988;28;20435;-85
2023/09/08 12:10:42;;;;;;;2.63;1.87;;;29.80;74.00;;;;;;4987295;28;20177;-85
2023/09/08 12:13:09;;;;;;;2.40;2.23;;;29.80;73.70;;;;;;5001658;28;20424;-85
2023/09/08 12:15:40;;;;;;;2.10;1.73;;;29.90;74.40;;;;;;5002839;28;20527;-85
2023/09/08 12:18:11;;;;;;;3.53;1.40;;;30.00;74.40;;;;;;4994123;28;20426;-83
2023/09/08 12:20:38;;;;;;;2.83;1.50;;;30.10;74.00;;;;;;4990693;28;20451;-85
2023/09/08 12:23:22;;;;;;;5.60;1.93;;;30.20;74.00;;;;;;4990447;28;20468;-85
2023/09/08 12:25:49;;;;;;;4.33;2.10;;;30.20;73.10;;;;;;4991466;28;20452;-85
2023/09/08 12:28:18;;;;;;;5.20;2.60;;;30.30;73.00;;;;;;4997063;28;20961;-85
2023/09/08 12:30:44;;;;;;;3.87;1.87;;;30.30;73.70;;;;;;4989283;28;20421;-86
2023/09/08 12:33:14;;;;;;;2.77;1.97;;;30.40;73.00;;;;;;4998656;28;20637;-85
2023/09/08 12:35:44;;;;;;;1.60;1.50;;;30.50;72.90;;;;;;5008509;28;20252;-85
2023/09/08 12:38:10;;;;;;;1.80;1.27;;;30.70;73.90;;;;;;4999602;28;20445;-85
2023/09/08 12:40:37;;;;;;;3.30;1.97;;;30.80;73.70;;;;;;5002399;28;20427;-85
2023/09/08 12:43:03;;;;;;;5.23;2.10;;;30.80;74.00;;;;;;5001989;28;20208;-85
2023/09/08 12:45:30;;;;;;;2.70;2.30;;;30.80;73.30;;;;;;4998575;28;20528;-85
2023/09/08 12:47:59;;;;;;;1.93;1.83;;;30.80;73.00;;;;;;5005054;28;20428;-85
2023/09/08 12:50:25;;;;;;;2.70;1.53;;;30.80;72.90;;;;;;4999195;28;20432;-85
2023/09/08 12:52:51;;;;;;;7.23;2.60;;;30.70;73.90;;;;;;4994580;28;20421;-85
2023/09/08 12:55:17;;;;;;;2.47;1.30;;;30.80;73.90;;;;;;4991040;28;20453;-84
2023/09/08 12:57:43;;;;;;;2.53;1.97;;;30.90;74.70;;;;;;5009622;28;20276;-85
2023/09/08 13:00:09;;;;;;;3.60;1.87;;;30.90;73.80;;;;;;5009403;28;20688;-85
2023/09/08 13:02:34;;;;;;;1.03;0.93;;;31.00;73.60;;;;;;5001476;28;20201;-85
2023/09/08 13:05:01;;;;;;;2.80;1.60;;;31.10;73.30;;;;;;4994315;28;20204;-85
2023/09/08 13:07:26;;;;;;;2.50;2.33;;;31.20;73.10;;;;;;5000343;28;20181;-85
2023/09/08 13:09:52;;;;;;;2.20;1.90;;;31.30;72.90;;;;;;4995211;28;20431;-85
2023/09/08 13:12:18;;;;;;;1.40;1.33;;;31.30;71.90;;;;;;4999362;28;20319;-87
2023/09/08 13:14:43;;;;;;;3.00;1.90;;;31.40;73.10;;;;;;4997635;28;20374;-85
2023/09/08 13:17:10;;;;;;;6.20;1.97;;;31.50;73.00;;;;;;4996556;28;20185;-85
2023/09/08 13:19:37;;;;;;;2.23;2.03;;;31.50;73.10;;;;;;4995354;28;20189;-85
2023/09/08 13:22:04;;;;;;;4.20;1.60;;;31.60;71.40;;;;;;5002933;28;20471;-85
2023/09/08 13:24:30;;;;;;;6.33;3.33;;;31.50;70.60;;;;;;5002835;28;21159;-85
2023/09/08 13:26:55;;;;;;;2.00;1.40;;;31.50;71.50;;;;;;4999946;28;20529;-84
2023/09/08 13:29:21;;;;;;;2.10;1.93;;;31.60;72.00;;;;;;5007659;28;20254;-84
2023/09/08 13:31:46;;;;;;;3.70;2.00;;;31.70;71.90;;;;;;4999800;28;20206;-85
2023/09/08 13:34:12;;;;;;;1.40;1.30;;;31.80;71.60;;;;;;4999626;28;20762;-83
2023/09/08 13:36:37;;;;;;;2.13;1.70;;;31.80;70.20;;;;;;4992726;28;20735;-84
2023/09/08 13:39:03;;;;;;;3.27;2.33;;;31.90;71.00;;;;;;5006654;28;20181;-85
2023/09/08 13:41:46;;;;;;;1.97;1.87;;;31.90;70.80;;;;;;5009742;28;20694;-85
2023/09/08 13:44:12;;;;;;;1.80;1.47;;;32.00;70.10;;;;;;4991594;28;20225;-85
2023/09/08 13:46:37;;;;;;;2.60;2.07;;;32.00;70.30;;;;;;5007359;28;20937;-85
2023/09/08 13:49:03;;;;;;;1.93;1.40;;;32.10;70.90;;;;;;4992193;28;20192;-86
2023/09/08 13:51:29;;;;;;;4.73;2.33;;;32.20;71.30;;;;;;4998929;28;20185;-86
2023/09/08 13:53:54;;;;;;;17.47;2.60;;;32.20;69.60;;;;;;4993707;28;20235;-86
2023/09/08 13:56:20;;;;;;;1.37;1.30;;;32.20;68.50;;;;;;4992383;28;20174;-86
2023/09/08 13:58:45;;;;;;;4.63;2.20;;;32.20;69.40;;;;;;4995680;28;20561;-86
2023/09/08 14:01:11;;;;;;;2.03;1.73;;;32.20;69.20;;;;;;5006820;28;20177;-85
2023/09/08 14:03:37;;;;;;;1.60;1.30;;;32.30;69.00;;;;;;4996155;28;20517;-84
2023/09/08 14:06:02;;;;;;;4.40;2.57;;;32.30;68.80;;;;;;4995624;28;20198;-85
2023/09/08 14:08:28;;;;;;;1.80;1.70;;;32.30;69.50;;;;;;5001818;28;20182;-85
2023/09/08 14:10:54;;;;;;;1.60;1.60;;;32.40;69.30;;;;;;4991275;28;20174;-86
2023/09/08 14:13:19;;;;;;;1.50;1.40;;;32.50;69.70;;;;;;5007203;28;20647;-86
2023/09/08 14:15:45;;;;;;;3.43;2.70;;;32.60;69.60;;;;;;5002675;28;20265;-85
2023/09/08 14:18:10;;;;;;;1.30;1.23;;;32.60;68.90;;;;;;4994945;28;20186;-86
2023/09/08 14:20:36;;;;;;;1.80;1.70;;;32.60;69.00;;;;;;4998839;28;20178;-85
2023/09/08 14:23:02;;;;;;;1.60;1.50;;;32.70;69.00;;;;;;4997055;28;20295;-85
2023/09/08 14:25:27;;;;;;;1.73;1.37;;;32.70;68.30;;;;;;4999239;28;20293;-87
2023/09/08 14:27:53;;;;;;;4.63;1.67;;;32.70;68.40;;;;;;4992627;28;20217;-85
2023/09/08 14:30:18;;;;;;;1.20;1.10;;;32.70;67.90;;;;;;4992431;28;20174;-85
2023/09/08 14:32:44;;;;;;;2.60;1.87;;;32.70;68.00;;;;;;4993585;28;20652;-86
2023/09/08 14:35:10;;;;;;;3.97;1.90;;;32.70;68.30;;;;;;4993605;28;20212;-86
2023/09/08 14:37:35;;;;;;;1.97;1.53;;;32.70;67.10;;;;;;5000096;28;20236;-86
2023/09/08 14:40:01;;;;;;;2.13;1.40;;;32.60;66.60;;;;;;4988942;28;20198;-85
2023/09/08 14:42:27;;;;;;;1.67;1.67;;;32.60;66.20;;;;;;4992258;28;20209;-85
2023/09/08 14:44:52;;;;;;;3.70;1.67;;;32.50;66.80;;;;;;4988180;28;20194;-86
2023/09/08 14:47:18;;;;;;;2.93;1.57;;;32.50;67.30;;;;;;5000279;28;20954;-84
2023/09/08 14:49:43;;;;;;;1.20;1.10;;;32.60;68.70;;;;;;4992610;28;20177;-85
2023/09/08 14:52:09;;;;;;;1.60;1.30;;;32.70;68.50;;;;;;5000605;28;20181;-86
2023/09/08 14:54:35;;;;;;;5.60;1.70;;;32.80;68.50;;;;;;4997830;28;20212;-85
2023/09/08 14:57:00;;;;;;;2.20;1.70;;;32.90;68.00;;;;;;4998213;28;20197;-85
2023/09/08 14:59:26;;;;;;;2.70;2.20;;;33.00;68.10;;;;;;5008690;28;20181;-85
2023/09/08 15:01:53;;;;;;;2.33;1.83;;;33.00;67.60;;;;;;4990893;28;20213;-85
2023/09/08 15:04:19;;;;;;;3.40;1.90;;;33.00;67.60;;;;;;4995992;28;20205;-85
2023/09/08 15:06:44;;;;;;;1.93;1.90;;;33.00;66.70;;;;;;4994406;28;20416;-85
2023/09/08 15:09:10;;;;;;;1.93;1.37;;;32.90;66.90;;;;;;4992167;28;20181;-84
2023/09/08 15:11:37;;;;;;;1.30;1.17;;;32.80;66.00;;;;;;4991791;28;20229;-85
2023/09/08 15:14:03;;;;;;;3.97;1.73;;;32.80;66.90;;;;;;5001036;28;20178;-85
2023/09/08 15:16:29;;;;;;;1.20;1.10;;;32.80;67.70;;;;;;5006306;28;20925;-85
2023/09/08 15:18:54;;;;;;;4.27;2.23;;;32.90;67.60;;;;;;5013377;28;20273;-85
2023/09/08 15:21:25;;;;;;;1.67;1.40;;;32.90;67.00;;;;;;5012807;28;20180;-85
2023/09/08 15:23:51;;;;;;;1.13;1.07;;;32.80;67.10;;;;;;5011406;28;20332;-85
2023/09/08 15:26:17;;;;;;;1.47;1.00;;;32.90;67.40;;;;;;4995461;28;20444;-86
2023/09/08 15:28:42;;;;;;;1.53;1.17;;;32.90;67.40;;;;;;4996588;28;20174;-86
2023/09/08 15:31:08;;;;;;;2.03;1.77;;;32.90;67.60;;;;;;5004892;28;20178;-86
2023/09/08 15:33:34;;;;;;;3.43;2.00;;;32.90;67.90;;;;;;4992700;28;20194;-86
2023/09/08 15:35:59;;;;;;;3.00;1.47;;;33.00;67.80;;;;;;4990997;28;20201;-86
2023/09/08 15:38:25;;;;;;;1.30;1.20;;;33.00;68.40;;;;;;4998926;28;20192;-86
2023/09/08 15:41:05;;;;;;;2.30;1.90;;;33.00;68.20;;;;;;4987628;28;20174;-86
2023/09/08 15:43:31;;;;;;;2.80;1.87;;;33.00;67.90;;;;;;4978803;28;20205;-86
2023/09/08 15:45:57;;;;;;;1.30;1.00;;;32.90;67.50;;;;;;4978178;28;20434;-86
2023/09/08 15:48:22;;;;;;;2.20;1.67;;;32.90;67.30;;;;;;4985801;28;20557;-85
2023/09/08 15:50:48;;;;;;;1.73;1.47;;;32.80;67.30;;;;;;4983437;28;20557;-86
2023/09/08 15:53:13;;;;;;;1.73;1.33;;;32.70;67.30;;;;;;4993824;28;20185;-86
2023/09/08 15:55:39;;;;;;;1.90;1.73;;;32.70;67.00;;;;;;5008255;28;20205;-86
2023/09/08 15:58:05;;;;;;;1.10;1.00;;;32.60;67.10;;;;;;5005325;28;20659;-84
2023/09/08 16:00:33;;;;;;;1.53;1.20;;;32.60;67.20;;;;;;5001901;28;20222;-86
2023/09/08 16:02:59;;;;;;;5.33;2.03;;;32.50;65.90;;;;;;5000239;28;20308;-86
2023/09/08 16:05:25;;;;;;;1.70;1.57;;;32.40;66.10;;;;;;4992847;28;21038;-86
2023/09/08 16:07:50;;;;;;;1.57;1.40;;;32.30;66.40;;;;;;5005110;28;20174;-85
2023/09/08 16:10:16;;;;;;;1.43;1.40;;;32.20;66.80;;;;;;4998428;28;20209;-85
2023/09/08 16:12:41;;;;;;;1.60;1.30;;;32.10;67.50;;;;;;5008429;28;20205;-86
2023/09/08 16:15:07;;;;;;;1.40;1.30;;;32.10;67.40;;;;;;4991435;28;20527;-86
2023/09/08 16:17:33;;;;;;;1.00;0.90;;;32.10;67.70;;;;;;4999283;28;20281;-82
2023/09/08 16:19:59;;;;;;;1.90;1.27;;;32.10;67.80;;;;;;5037251;23;20237;-86
2023/09/08 16:22:25;;;;;;;1.30;1.20;;;32.10;68.30;;;;;;4980360;28;20399;-84
2023/09/08 16:24:50;;;;;;;1.10;1.10;;;32.10;68.70;;;;;;4997624;28;20232;-86
2023/09/08 16:27:16;;;;;;;3.07;1.50;;;32.00;68.90;;;;;;4998713;28;20178;-85
2023/09/08 16:29:41;;;;;;;1.47;1.37;;;32.00;69.20;;;;;;4989103;28;20249;-85
2023/09/08 16:32:10;;;;;;;8.47;1.50;;;31.90;69.70;;;;;;4989998;28;20277;-85
2023/09/08 16:34:35;;;;;;;1.63;1.60;;;31.90;70.10;;;;;;4989546;28;20315;-85
2023/09/08 16:37:02;;;;;;;1.90;1.57;;;31.80;70.30;;;;;;4989021;28;20590;-85
2023/09/08 16:39:27;;;;;;;3.57;2.23;;;31.70;70.70;;;;;;4990193;28;20208;-85
2023/09/08 16:41:53;;;;;;;1.80;1.30;;;31.60;70.90;;;;;;4988885;28;20422;-86
2023/09/08 16:44:18;;;;;;;2.23;1.60;;;31.50;70.80;;;;;;4993324;28;20188;-85
2023/09/08 16:46:44;;;;;;;2.63;1.30;;;31.30;71.00;;;;;;4989202;28;20189;-85